Time;durP1;ratioP1;P1;durP2;ratioP2;P2;SDS_P1;SDS_P2;PMS_P1;PMS_P2;Temp;Humidity;BMP_temperature;BMP_pressure;BME280_temperature;BME280_humidity;BME280_pressure;Samples;Min_cycle;Max_cycle;Signal;HPM_P1;HPM_P2
2021/03/20 00:00:47;;;;;;;74.25;28.67;;;;;;;0.42;100.00;100896.84;1748223;82;21120;-85
2021/03/20 00:07:40;;;;;;;52.98;22.77;;;;;;;0.42;100.00;100895.55;1748222;82;21174;-85
2021/03/20 00:14:31;;;;;;;52.83;22.52;;;;;;;0.48;100.00;100894.09;1733109;82;21140;-85
2021/03/20 00:21:23;;;;;;;49.88;22.70;;;;;;;0.49;100.00;100891.93;1733100;82;21481;-86
2021/03/20 00:28:21;;;;;;;46.55;20.48;;;;;;;0.50;100.00;100894.04;1733068;82;21303;-85
2021/03/20 00:35:13;;;;;;;44.73;20.15;;;;;;;0.53;100.00;100890.12;1733052;82;21871;-85
2021/03/20 00:42:05;;;;;;;41.05;19.62;;;;;;;0.53;100.00;100884.99;1733091;82;21140;-85
2021/03/20 00:48:41;;;;;;;43.48;18.98;;;;;;;0.57;100.00;100887.42;1767286;81;21123;-85
2021/03/20 00:55:14;;;;;;;46.18;20.88;;;;;;;0.60;100.00;100892.44;1767227;81;21127;-85
2021/03/20 01:02:06;;;;;;;44.93;20.27;;;;;;;0.64;100.00;100891.94;1767186;81;21041;-85
2021/03/20 01:08:59;;;;;;;34.95;18.87;;;;;;;0.67;100.00;100894.39;1767120;80;21441;-86
2021/03/20 01:19:56;;;;;;;41.48;20.45;;;;;;;0.69;100.00;100895.63;1767295;81;21576;-85
2021/03/20 01:26:28;;;;;;;47.38;20.92;;;;;;;0.70;100.00;100902.01;1767388;81;21175;-86
2021/03/20 01:33:20;;;;;;;53.05;21.77;;;;;;;0.69;100.00;100900.33;1778564;80;21140;-85
2021/03/20 01:40:16;;;;;;;39.33;19.65;;;;;;;0.68;100.00;100906.78;1778457;80;21178;-85
2021/03/20 01:46:45;;;;;;;48.38;22.30;;;;;;;0.72;100.00;100909.64;1712922;83;21108;-85
2021/03/20 01:49:37;;;;;;;53.00;23.85;;;;;;;0.74;100.00;100901.47;1787421;80;21375;-85
2021/03/20 01:56:22;;;;;;;35.85;19.17;;;;;;;0.77;100.00;100906.48;1789279;80;20244;-85
2021/03/20 02:03:20;;;;;;;46.63;21.90;;;;;;;0.73;100.00;100910.05;1795970;79;21133;-85
2021/03/20 02:15:02;;;;;;;73.95;29.90;;;;;;;0.67;100.00;100914.08;1809785;79;21816;-85
2021/03/20 02:26:13;;;;;;;66.92;32.20;;;;;;;0.55;100.00;100919.11;1809713;79;21542;-85
2021/03/20 02:37:28;;;;;;;75.62;31.97;;;;;;;0.55;100.00;100924.23;1809716;79;21131;-86
2021/03/20 02:53:08;;;;;;;63.05;27.98;;;;;;;0.61;100.00;100921.03;1767159;81;21405;-85
2021/03/20 03:04:19;;;;;;;81.60;31.60;;;;;;;0.63;100.00;100917.17;1709290;84;21215;-86
2021/03/20 03:11:19;;;;;;;58.50;29.37;;;;;;;0.60;100.00;100916.79;1709283;84;21617;-86
2021/03/20 03:22:43;;;;;;;52.60;26.93;;;;;;;0.60;100.00;100920.63;1709338;84;21150;-85
2021/03/20 03:34:06;;;;;;;44.33;23.87;;;;;;;0.56;100.00;100921.63;1722473;83;21169;-86
2021/03/20 03:53:48;;;;;;;77.22;29.67;;;;;;;0.37;100.00;100921.30;1785481;79;21150;-85
2021/03/20 04:00:38;;;;;;;85.97;31.30;;;;;;;0.26;100.00;100931.84;1785696;80;21143;-86
2021/03/20 04:11:55;;;;;;;66.12;28.73;;;;;;;0.10;100.00;100940.36;1785715;80;21060;-86
2021/03/20 04:23:28;;;;;;;72.92;28.00;;;;;;;0.04;100.00;100936.69;1785702;80;21139;-87
2021/03/20 04:30:24;;;;;;;58.23;24.57;;;;;;;0.02;100.00;100937.61;1807262;79;21555;-86
2021/03/20 04:37:20;;;;;;;56.48;22.77;;;;;;;0.06;100.00;100946.88;1713952;83;21140;-87
2021/03/20 04:44:16;;;;;;;75.03;30.65;;;;;;;0.65;100.00;100941.47;1792946;79;21131;-87
2021/03/20 04:51:27;;;;;;;58.85;25.15;;;;;;;0.79;100.00;100954.72;1775097;79;21139;-87
2021/03/20 04:54:24;;;;;;;46.10;23.38;;;;;;;0.92;100.00;100951.36;1799025;79;21798;-87
2021/03/20 05:01:03;;;;;;;51.55;23.87;;;;;;;1.06;100.00;100952.24;1799212;79;21131;-85
2021/03/20 05:07:47;;;;;;;62.50;26.10;;;;;;;1.21;100.00;100954.34;1738194;79;21069;-85
2021/03/20 05:10:53;;;;;;;71.65;26.90;;;;;;;1.35;100.00;100957.77;1809788;79;22081;-85
2021/03/20 05:17:44;;;;;;;60.73;25.27;;;;;;;1.17;100.00;100960.44;1788242;79;21136;-84
2021/03/20 05:24:38;;;;;;;81.75;26.05;;;;;;;0.97;100.00;100970.46;1769301;79;21152;-84
2021/03/20 05:27:52;;;;;;;78.22;27.25;;;;;;;0.98;100.00;100966.56;1766457;80;21203;-85
2021/03/20 05:34:45;;;;;;;56.15;25.32;;;;;;;0.85;100.00;100972.94;1781100;79;21064;-86
2021/03/20 05:37:37;;;;;;;60.95;27.32;;;;;;;0.83;100.00;100980.69;1782227;79;21548;-86
2021/03/20 05:40:18;;;;;;;64.70;24.65;;;;;;;0.83;100.00;100977.27;1785773;80;21112;-86
2021/03/20 05:43:09;;;;;;;56.25;23.55;;;;;;;0.83;100.00;100980.69;1777238;79;21378;-87
2021/03/20 05:57:26;;;;;;;60.43;26.50;;;;;;;0.80;100.00;100985.89;1791008;79;21181;-85
2021/03/20 06:00:21;;;;;;;69.60;25.97;;;;;;;0.87;100.00;100982.72;1748846;79;21470;-85
2021/03/20 06:07:35;;;;;;;56.10;22.95;;;;;;;0.91;100.00;100986.44;1792231;79;21119;-85
2021/03/20 06:10:29;;;;;;;52.43;22.93;;;;;;;0.91;100.00;100987.72;1784779;79;21108;-85
2021/03/20 06:24:37;;;;;;;46.37;17.85;;;;;;;0.94;100.00;100990.63;1792227;79;21014;-85
2021/03/20 07:57:20;;;;;;;47.88;23.25;;;;;;;1.16;100.00;100995.95;1770218;79;21580;-89
2021/03/20 08:00:28;;;;;;;64.05;30.17;;;;;;;1.23;100.00;101003.89;1772457;81;21154;-89
2021/03/20 08:03:16;;;;;;;44.93;24.23;;;;;;;1.30;100.00;100992.15;1772675;81;21124;-88
2021/03/20 08:14:43;;;;;;;39.95;21.23;;;;;;;1.57;100.00;100993.84;1772627;81;21028;-89
2021/03/20 08:17:40;;;;;;;38.75;19.75;;;;;;;1.70;100.00;100994.77;1698905;84;21177;-89
2021/03/20 08:24:59;;;;;;;39.88;20.48;;;;;;;1.71;100.00;101002.86;1711464;83;21185;-90
2021/03/20 10:57:54;;;;;;;31.00;17.48;;;;;;;2.78;100.00;100980.78;1695430;84;21901;-92
2021/03/20 11:04:46;;;;;;;25.60;15.60;;;;;;;2.87;100.00;100976.20;1717742;83;21095;-94
2021/03/20 11:11:15;;;;;;;24.75;14.70;;;;;;;2.70;100.00;100969.94;1697051;83;21159;-92
2021/03/20 11:18:08;;;;;;;;;;;;;;;2.90;100.00;100967.91;1720751;83;21518;-96
2021/03/20 11:21:20;;;;;;;23.55;14.23;;;;;;;2.97;100.00;100967.25;1713968;83;20271;-92
2021/03/20 11:32:39;;;;;;;22.65;15.68;;;;;;;2.95;100.00;100967.31;1715310;83;21159;-92
2021/03/20 11:39:32;;;;;;;26.25;16.60;;;;;;;3.08;100.00;100973.27;1715064;83;21171;-90
2021/03/20 11:46:37;;;;;;;21.07;14.53;;;;;;;3.30;100.00;100972.00;1714973;83;21179;-92
2021/03/20 11:58:00;;;;;;;17.40;12.85;;;;;;;3.61;100.00;100967.75;1714970;83;21163;-90
2021/03/20 12:09:32;;;;;;;30.30;16.12;;;;;;;3.06;100.00;100977.20;1713440;83;21180;-92
2021/03/20 12:20:41;;;;;;;26.77;16.42;;;;;;;2.64;100.00;100977.45;1713543;81;21155;-92
2021/03/20 12:31:54;;;;;;;27.05;16.25;;;;;;;2.47;100.00;100979.78;1697003;83;21212;-89
2021/03/20 12:38:46;;;;;;;24.82;16.27;;;;;;;2.45;100.00;100978.53;1692018;83;21618;-89
2021/03/20 12:45:25;;;;;;;20.02;14.33;;;;;;;2.45;100.00;100977.24;1667464;84;21122;-89
2021/03/20 12:56:41;;;;;;;17.23;12.15;;;;;;;2.35;100.00;100981.05;1656285;86;21204;-89
2021/03/20 13:03:34;;;;;;;19.62;12.70;;;;;;;2.52;100.00;100981.73;1664011;84;22040;-90
2021/03/20 13:10:27;;;;;;;20.08;13.00;;;;;;;2.79;100.00;100984.21;1624633;87;21184;-90
2021/03/20 13:17:03;;;;;;;15.50;13.03;;;;;;;3.01;100.00;100979.09;1668038;85;21158;-89
2021/03/20 13:23:55;;;;;;;18.73;13.98;;;;;;;3.31;100.00;100980.95;1679981;85;21251;-89
2021/03/20 13:30:47;;;;;;;18.10;12.85;;;;;;;3.41;100.00;100974.98;1662445;86;21179;-89
2021/03/20 13:37:38;;;;;;;15.58;11.93;;;;;;;3.45;100.00;100971.83;1662610;86;21096;-90
2021/03/20 13:44:32;;;;;;;16.48;12.33;;;;;;;3.37;100.00;100972.15;1658465;84;21219;-90
2021/03/20 13:51:23;;;;;;;26.77;13.55;;;;;;;3.44;100.00;100965.86;1649414;87;21600;-90
2021/03/20 13:58:15;;;;;;;24.45;12.70;;;;;;;3.68;100.00;100963.66;1649337;87;21922;-89
2021/03/20 14:05:10;;;;;;;29.85;13.85;;;;;;;3.90;100.00;100952.85;1639977;87;21158;-90
2021/03/20 14:11:40;;;;;;;21.68;13.80;;;;;;;3.99;100.00;100953.37;1679191;84;20315;-90
2021/03/20 14:18:18;;;;;;;23.45;12.15;;;;;;;4.05;100.00;100946.66;1643193;84;21174;-90
2021/03/20 14:25:14;;;;;;;73.97;14.85;;;;;;;4.09;100.00;100961.08;1648298;86;21632;-92
2021/03/20 14:36:32;;;;;;;35.63;13.88;;;;;;;4.30;100.00;100963.66;1639823;87;21228;-91
2021/03/20 14:43:24;;;;;;;20.27;12.98;;;;;;;4.27;100.00;100968.50;1641263;86;21218;-92
2021/03/20 14:50:21;;;;;;;34.08;13.90;;;;;;;4.15;100.00;100973.73;1644764;87;21176;-91
2021/03/20 14:57:13;;;;;;;27.00;13.20;;;;;;;4.15;100.00;100978.03;1631422;87;21175;-92
2021/03/20 15:04:05;;;;;;;18.15;13.95;;;;;;;4.08;100.00;100980.88;1656987;86;21199;-93
2021/03/20 15:07:08;;;;;;;25.60;13.90;;;;;;;4.13;100.00;100980.68;1656946;85;21187;-93
2021/03/20 15:14:00;;;;;;;20.90;14.95;;;;;;;4.18;100.00;100980.48;1647531;86;21167;-92
2021/03/20 15:20:54;;;;;;;22.98;14.85;;;;;;;4.20;100.00;100978.69;1683601;83;21179;-92
2021/03/20 15:27:47;;;;;;;21.55;12.73;;;;;;;4.21;100.00;100988.08;1646060;86;21183;-91
2021/03/20 15:34:40;;;;;;;24.85;12.45;;;;;;;4.24;100.00;100986.66;1686140;85;21623;-91
2021/03/20 15:41:33;;;;;;;170.82;22.40;;;;;;;4.25;100.00;100989.16;1585941;89;21453;-90
2021/03/20 15:48:07;;;;;;;40.23;15.85;;;;;;;4.29;100.00;100992.45;1654062;86;21163;-91
2021/03/20 15:55:01;;;;;;;23.32;13.48;;;;;;;4.22;100.00;100996.20;1640127;86;21176;-91
2021/03/20 16:01:53;;;;;;;27.87;14.00;;;;;;;4.06;100.00;101007.15;1694524;83;21147;-92
2021/03/20 16:08:40;;;;;;;27.27;14.28;;;;;;;3.97;100.00;101007.52;1637275;87;21185;-90
2021/03/20 16:15:32;;;;;;;22.45;14.98;;;;;;;3.89;100.00;101018.16;1665867;84;21240;-91
2021/03/20 16:22:24;;;;;;;28.17;16.75;;;;;;;3.71;100.00;101018.46;1676328;84;21451;-92
2021/03/20 16:29:17;;;;;;;31.10;17.82;;;;;;;3.58;100.00;101024.98;1667840;84;21910;-92
2021/03/20 16:36:13;;;;;;;29.18;19.12;;;;;;;3.30;100.00;101033.32;1644948;85;21175;-91
2021/03/20 16:43:06;;;;;;;31.37;19.67;;;;;;;3.11;100.00;101029.31;1655603;85;21211;-92
2021/03/20 16:49:39;;;;;;;24.57;18.00;;;;;;;3.07;100.00;101027.77;1664545;86;21183;-89
2021/03/20 16:56:31;;;;;;;49.53;32.40;;;;;;;2.94;100.00;101031.66;1691580;83;21167;-91
2021/03/20 17:03:22;;;;;;;117.08;66.22;;;;;;;2.50;100.00;101037.06;1699889;83;21301;-92
2021/03/20 17:10:08;;;;;;;50.43;33.13;;;;;;;2.17;100.00;101032.17;1692681;84;21182;-92
2021/03/20 17:17:00;;;;;;;29.90;22.70;;;;;;;1.96;100.00;101036.75;1648812;87;21591;-91
2021/03/20 17:23:52;;;;;;;27.17;19.45;;;;;;;1.44;100.00;101044.34;1692463;84;21559;-94
2021/03/20 17:30:45;;;;;;;25.02;19.85;;;;;;;1.04;100.00;101050.19;1647706;85;21191;-91
2021/03/20 17:37:37;;;;;;;25.35;18.23;;;;;;;0.60;100.00;101056.48;1639352;86;21219;-91
2021/03/20 17:44:31;;;;;;;26.25;18.57;;;;;;;0.21;100.00;101064.30;1685498;84;21586;-92
2021/03/20 17:51:04;;;;;;;33.67;22.25;;;;;;;-0.03;100.00;101068.31;1702321;83;21195;-92
2021/03/20 17:57:56;;;;;;;29.20;21.87;;;;;;;-0.21;100.00;101065.30;1697936;83;21230;-91
2021/03/20 18:04:47;;;;;;;33.75;22.85;;;;;;;-0.28;100.00;101060.37;1687457;83;21096;-93
2021/03/20 18:11:31;;;;;;;34.92;23.98;;;;;;;-0.26;100.00;101056.04;1695911;83;21088;-91
2021/03/20 18:18:30;;;;;;;44.70;29.42;;;;;;;-0.26;100.00;101059.88;1698683;83;21190;-92
2021/03/20 18:29:46;;;;;;;54.65;35.38;;;;;;;-0.34;100.00;101074.97;1644740;86;21184;-92
2021/03/20 18:36:38;;;;;;;47.98;31.37;;;;;;;-0.48;100.00;101080.39;1627880;84;21510;-92
2021/03/20 18:43:30;;;;;;;42.15;28.67;;;;;;;-0.58;100.00;101069.97;1648494;85;21248;-92
2021/03/20 18:50:30;;;;;;;39.18;27.27;;;;;;;-0.54;100.00;101075.41;1701779;83;21650;-91
2021/03/20 19:01:44;;;;;;;43.80;29.40;;;;;;;-0.34;100.00;101069.02;1640411;85;21196;-91
2021/03/20 19:08:37;;;;;;;54.08;35.17;;;;;;;-0.37;100.00;101055.01;1650831;85;21183;-91
2021/03/20 19:15:30;;;;;;;52.23;32.15;;;;;;;-0.38;100.00;101050.34;1637075;87;21231;-91
2021/03/20 19:22:05;;;;;;;42.75;29.07;;;;;;;-0.34;100.00;101046.82;1605991;88;21207;-90
2021/03/20 19:28:58;;;;;;;34.13;23.27;;;;;;;-0.44;100.00;101061.97;1662910;85;21433;-89
2021/03/20 19:35:50;;;;;;;39.10;26.48;;;;;;;-0.52;100.00;101057.48;1662540;86;21223;-90
2021/03/20 19:42:41;;;;;;;35.70;25.90;;;;;;;-0.57;100.00;101067.81;1659255;85;21155;-90
2021/03/20 19:49:33;;;;;;;38.05;27.95;;;;;;;-0.67;100.00;101061.20;1634706;87;21210;-90
2021/03/20 19:56:27;;;;;;;42.95;28.47;;;;;;;-0.71;100.00;101057.87;1651393;85;21167;-90
2021/03/20 20:03:20;;;;;;;48.60;32.13;;;;;;;-0.61;100.00;101056.41;1691389;84;21155;-89
2021/03/20 20:10:06;;;;;;;45.52;30.25;;;;;;;-0.55;100.00;101059.65;1644471;86;21211;-90
2021/03/20 20:16:59;;;;;;;43.65;30.50;;;;;;;-0.53;100.00;101065.58;1647421;86;21172;-91
2021/03/20 20:23:32;;;;;;;47.55;30.92;;;;;;;-0.56;100.00;101073.31;1628868;87;21175;-91
2021/03/20 20:30:27;;;;;;;45.92;30.08;;;;;;;-0.56;100.00;101078.88;1640583;84;21278;-91
2021/03/20 20:37:20;;;;;;;36.38;26.30;;;;;;;-0.53;100.00;101087.33;1632728;86;21212;-92
2021/03/20 20:44:23;;;;;;;152.87;70.95;;;;;;;-0.49;100.00;101080.42;1630055;88;21235;-92
2021/03/20 20:51:24;;;;;;;53.90;31.30;;;;;;;-0.32;100.00;101077.06;1639759;86;21632;-90
2021/03/20 21:02:40;;;;;;;48.83;32.85;;;;;;;-0.03;100.00;101078.56;1663987;86;21168;-91
2021/03/20 21:09:22;;;;;;;41.83;28.05;;;;;;;-0.07;100.00;101081.63;1663053;86;21131;-91
2021/03/20 21:16:15;;;;;;;42.75;28.98;;;;;;;0.03;100.00;101080.14;1682003;84;21186;-92
2021/03/20 21:23:08;;;;;;;45.45;32.10;;;;;;;0.04;100.00;101069.84;1664047;86;21151;-91
2021/03/20 21:30:00;;;;;;;40.67;27.73;;;;;;;0.00;100.00;101081.06;1663967;86;21634;-92
2021/03/20 21:36:51;;;;;;;40.73;27.90;;;;;;;-0.06;100.00;101082.04;1663989;86;21179;-91
2021/03/20 21:43:43;;;;;;;43.42;28.17;;;;;;;-0.09;100.00;101082.09;1687524;84;21194;-92
2021/03/20 21:50:39;;;;;;;39.53;25.10;;;;;;;-0.16;100.00;101085.67;1641937;87;21183;-92
2021/03/20 22:01:43;;;;;;;36.55;25.32;;;;;;;-0.14;100.00;101073.69;1637458;86;21148;-90
2021/03/20 22:08:32;;;;;;;36.68;25.02;;;;;;;-0.17;100.00;101082.29;1629100;87;21498;-91
2021/03/20 22:15:24;;;;;;;37.13;26.15;;;;;;;-0.27;100.00;101087.20;1650977;85;21178;-92
2021/03/20 22:22:16;;;;;;;31.97;22.02;;;;;;;-0.34;100.00;101092.06;1644536;87;21599;-91
2021/03/20 22:29:08;;;;;;;41.73;29.25;;;;;;;-0.39;100.00;101091.30;1644631;87;21155;-91
2021/03/20 22:35:59;;;;;;;36.28;24.35;;;;;;;-0.40;100.00;101097.32;1622940;87;21190;-91
2021/03/20 22:42:53;;;;;;;29.57;20.17;;;;;;;-0.44;100.00;101090.11;1639134;86;21183;-91
2021/03/20 22:49:44;;;;;;;27.60;19.40;;;;;;;-0.49;100.00;101091.94;1689642;83;21135;-92
2021/03/20 22:56:16;;;;;;;28.80;19.07;;;;;;;-0.49;100.00;101096.64;1653258;85;21185;-91
2021/03/20 23:03:15;;;;;;;25.77;17.60;;;;;;;-0.49;100.00;101089.38;1654848;86;21571;-92
2021/03/20 23:09:58;;;;;;;22.45;16.25;;;;;;;-0.49;100.00;101085.55;1654403;86;21150;-92
2021/03/20 23:16:52;;;;;;;23.05;15.85;;;;;;;-0.51;100.00;101086.87;1618429;88;21186;-92
2021/03/20 23:23:43;;;;;;;25.27;15.50;;;;;;;-0.50;100.00;101088.97;1650117;86;21183;-92
2021/03/20 23:30:42;;;;;;;29.25;16.90;;;;;;;-0.49;100.00;101088.10;1654676;86;21196;-91
2021/03/20 23:37:34;;;;;;;25.50;16.12;;;;;;;-0.48;100.00;101079.11;1659091;86;21174;-91
2021/03/20 23:44:26;;;;;;;20.72;15.18;;;;;;;-0.42;100.00;101073.47;1640636;87;21585;-92
2021/03/20 23:51:21;;;;;;;23.92;15.53;;;;;;;-0.43;100.00;101057.26;1630176;87;21103;-91
2021/03/20 23:57:54;;;;;;;23.75;16.07;;;;;;;-0.50;100.00;101061.69;1681078;85;21564;-90
